This is the latest recevied weather packets stored in our database for station/object SP3WRO-13. If no packets are shown the sender has not sent any weather packets the latest 10 day(s).
| Time | Temp. | Humidity | Pressure | Rain* | Wind** | Luminosity | Snow |
|---|---|---|---|---|---|---|---|
| 1788237956 | 14.44° C | 90% | 1009.7 hPa | - | - | 9 W/m² | - |
| 1788237056 | 13.89° C | 90% | 1009.7 hPa | - | - | 13 W/m² | - |
| 1788236156 | 13.89° C | 91% | 1009.6 hPa | - | - | 6 W/m² | - |
| 1788221751 | 15° C | 87% | 1009.1 hPa | - | - | - | - |
| 1788220933 | 14.44° C | 91% | 1009 hPa | - | - | - | - |
| 1788219050 | 14.44° C | 95% | 1008.7 hPa | - | - | - | - |
| 1788218150 | 15° C | 95% | 1008.7 hPa | - | - | - | - |
| 1788215450 | 15.56° C | 95% | 1008.6 hPa | - | - | - | - |
| 1788213650 | 15.56° C | 93% | 1008.7 hPa | - | - | - | - |
| 1788212749 | 15.56° C | 93% | 1008.7 hPa | - | - | - | - |
| 1788211978 | 15.56° C | 92% | 1008.6 hPa | - | - | - | - |
| 1788211894 | 15.56° C | 92% | 1008.6 hPa | - | - | - | - |
| 1788211848 | 15.56° C | 92% | 1008.6 hPa | - | - | - | - |
| 1788211074 | 15.56° C | 93% | 1008.5 hPa | - | - | - | - |
| 1788210948 | 15.56° C | 93% | 1008.5 hPa | - | - | - | - |
| 1788210048 | 15.56° C | 94% | 1008.6 hPa | - | - | - | - |
| 1788208248 | 15° C | 95% | 1007.8 hPa | - | - | - | - |
| 1788207348 | 15.56° C | 95% | 1007.7 hPa | - | - | - | - |
| 1788206448 | 15.56° C | 94% | 1007.7 hPa | - | - | - | - |
| 1788205548 | 16.11° C | 93% | 1007.7 hPa | - | - | - | - |
| 1788204714 | 16.67° C | 89% | 1007.6 hPa | - | - | - | - |
| 1788204648 | 16.67° C | 89% | 1007.6 hPa | - | - | - | - |
| 1788203956 | 17.22° C | 88% | 1007.7 hPa | - | - | - | - |
| 1788203748 | 17.22° C | 88% | 1007.7 hPa | - | - | - | - |
| 1788202848 | 16.67° C | 91% | 1007.7 hPa | - | - | - | - |
* Rain since midnight (hover to see other rain measurements)
** Current wind speed in m/s (hover to see current wind gust speed)